sensor_id;sensor_type;location;lat;lon;timestamp;P1;durP1;ratioP1;P2;durP2;ratioP2
22378;SDS011;11357;49.990;7.370;2024-03-02T00:00:04;403.40;;;142.73;;
22378;SDS011;11357;49.990;7.370;2024-03-02T00:02:43;340.73;;;102.17;;
22378;SDS011;11357;49.990;7.370;2024-03-02T00:05:12;409.17;;;121.50;;
22378;SDS011;11357;49.990;7.370;2024-03-02T00:07:43;393.77;;;130.37;;
22378;SDS011;11357;49.990;7.370;2024-03-02T00:10:11;374.33;;;123.53;;
22378;SDS011;11357;49.990;7.370;2024-03-02T00:12:41;840.47;;;173.40;;
22378;SDS011;11357;49.990;7.370;2024-03-02T00:18:12;618.43;;;161.03;;
22378;SDS011;11357;49.990;7.370;2024-03-02T00:20:43;433.33;;;139.97;;
22378;SDS011;11357;49.990;7.370;2024-03-02T00:23:09;499.67;;;162.07;;
22378;SDS011;11357;49.990;7.370;2024-03-02T00:25:40;442.17;;;143.00;;
22378;SDS011;11357;49.990;7.370;2024-03-02T00:28:17;430.27;;;140.00;;
22378;SDS011;11357;49.990;7.370;2024-03-02T00:30:55;708.47;;;180.87;;
22378;SDS011;11357;49.990;7.370;2024-03-02T00:33:22;431.17;;;151.10;;
22378;SDS011;11357;49.990;7.370;2024-03-02T00:35:49;570.10;;;190.63;;
22378;SDS011;11357;49.990;7.370;2024-03-02T00:38:15;532.83;;;191.63;;
22378;SDS011;11357;49.990;7.370;2024-03-02T00:40:41;532.00;;;181.57;;
22378;SDS011;11357;49.990;7.370;2024-03-02T00:44:09;544.20;;;170.23;;
22378;SDS011;11357;49.990;7.370;2024-03-02T00:46:11;645.23;;;211.00;;
22378;SDS011;11357;49.990;7.370;2024-03-02T00:48:38;636.17;;;191.03;;
22378;SDS011;11357;49.990;7.370;2024-03-02T00:51:04;537.60;;;186.10;;
22378;SDS011;11357;49.990;7.370;2024-03-02T00:53:31;638.87;;;213.20;;
22378;SDS011;11357;49.990;7.370;2024-03-02T00:56:00;821.77;;;224.23;;
22378;SDS011;11357;49.990;7.370;2024-03-02T00:58:26;694.80;;;190.63;;
22378;SDS011;11357;49.990;7.370;2024-03-02T01:00:52;610.43;;;187.27;;
22378;SDS011;11357;49.990;7.370;2024-03-02T01:03:18;764.63;;;263.30;;
22378;SDS011;11357;49.990;7.370;2024-03-02T01:05:44;648.97;;;181.40;;
22378;SDS011;11357;49.990;7.370;2024-03-02T01:08:10;599.63;;;193.53;;
22378;SDS011;11357;49.990;7.370;2024-03-02T01:10:36;963.47;;;246.17;;
22378;SDS011;11357;49.990;7.370;2024-03-02T01:13:01;734.20;;;223.67;;
22378;SDS011;11357;49.990;7.370;2024-03-02T01:15:27;727.90;;;181.13;;
22378;SDS011;11357;49.990;7.370;2024-03-02T01:17:53;645.37;;;218.70;;
22378;SDS011;11357;49.990;7.370;2024-03-02T01:20:19;774.00;;;214.90;;
22378;SDS011;11357;49.990;7.370;2024-03-02T01:22:45;667.67;;;199.83;;
22378;SDS011;11357;49.990;7.370;2024-03-02T01:25:10;484.33;;;159.07;;
22378;SDS011;11357;49.990;7.370;2024-03-02T01:27:36;458.53;;;157.00;;
22378;SDS011;11357;49.990;7.370;2024-03-02T04:44:22;344.90;;;118.07;;
22378;SDS011;11357;49.990;7.370;2024-03-02T04:46:48;454.23;;;125.17;;
22378;SDS011;11357;49.990;7.370;2024-03-02T04:57:29;468.27;;;150.47;;
22378;SDS011;11357;49.990;7.370;2024-03-02T05:10:21;672.50;;;173.00;;
22378;SDS011;11357;49.990;7.370;2024-03-02T05:12:47;469.53;;;142.00;;
22378;SDS011;11357;49.990;7.370;2024-03-02T05:15:22;431.80;;;136.57;;
22378;SDS011;11357;49.990;7.370;2024-03-02T05:17:47;444.83;;;159.30;;
22378;SDS011;11357;49.990;7.370;2024-03-02T06:43:51;1308.13;;;314.80;;
22378;SDS011;11357;49.990;7.370;2024-03-02T06:46:24;1603.07;;;427.13;;
22378;SDS011;11357;49.990;7.370;2024-03-02T06:48:50;1147.17;;;306.33;;
22378;SDS011;11357;49.990;7.370;2024-03-02T06:51:15;1014.70;;;282.00;;
22378;SDS011;11357;49.990;7.370;2024-03-02T06:53:41;783.40;;;200.33;;
22378;SDS011;11357;49.990;7.370;2024-03-02T06:56:07;984.47;;;233.57;;
22378;SDS011;11357;49.990;7.370;2024-03-02T06:58:33;1177.47;;;249.47;;
22378;SDS011;11357;49.990;7.370;2024-03-02T07:00:59;1112.73;;;264.50;;
22378;SDS011;11357;49.990;7.370;2024-03-02T07:03:25;645.37;;;214.93;;
22378;SDS011;11357;49.990;7.370;2024-03-02T07:05:51;844.13;;;273.37;;
22378;SDS011;11357;49.990;7.370;2024-03-02T07:08:17;1276.20;;;313.13;;
22378;SDS011;11357;49.990;7.370;2024-03-02T07:10:42;737.40;;;185.70;;
22378;SDS011;11357;49.990;7.370;2024-03-02T07:13:08;1150.13;;;284.57;;
22378;SDS011;11357;49.990;7.370;2024-03-02T07:15:34;1146.03;;;308.43;;
22378;SDS011;11357;49.990;7.370;2024-03-02T07:18:15;1999.90;;;403.33;;
22378;SDS011;11357;49.990;7.370;2024-03-02T07:20:40;982.90;;;316.03;;
22378;SDS011;11357;49.990;7.370;2024-03-02T07:23:06;726.73;;;118.13;;
22378;SDS011;11357;49.990;7.370;2024-03-02T07:25:32;1065.30;;;268.50;;
22378;SDS011;11357;49.990;7.370;2024-03-02T07:27:57;1475.70;;;259.17;;
22378;SDS011;11357;49.990;7.370;2024-03-02T07:49:41;1252.90;;;274.90;;
22378;SDS011;11357;49.990;7.370;2024-03-02T07:52:25;1357.13;;;397.33;;
22378;SDS011;11357;49.990;7.370;2024-03-02T07:54:50;1999.90;;;453.67;;
22378;SDS011;11357;49.990;7.370;2024-03-02T07:57:16;1493.70;;;330.13;;
22378;SDS011;11357;49.990;7.370;2024-03-02T08:05:38;1776.73;;;746.97;;
22378;SDS011;11357;49.990;7.370;2024-03-02T08:08:04;1184.23;;;189.77;;
22378;SDS011;11357;49.990;7.370;2024-03-02T08:23:21;1999.90;;;999.90;;
22378;SDS011;11357;49.990;7.370;2024-03-02T08:25:47;1999.90;;;999.90;;
22378;SDS011;11357;49.990;7.370;2024-03-02T08:28:13;1999.90;;;999.90;;
22378;SDS011;11357;49.990;7.370;2024-03-02T14:38:07;1999.90;;;999.90;;
22378;SDS011;11357;49.990;7.370;2024-03-02T14:40:32;1999.90;;;999.90;;
22378;SDS011;11357;49.990;7.370;2024-03-02T14:42:58;1999.90;;;999.90;;
22378;SDS011;11357;49.990;7.370;2024-03-02T14:45:24;1999.90;;;999.90;;
22378;SDS011;11357;49.990;7.370;2024-03-02T14:47:49;1999.90;;;999.90;;
22378;SDS011;11357;49.990;7.370;2024-03-02T14:50:17;1999.90;;;999.90;;
22378;SDS011;11357;49.990;7.370;2024-03-02T14:52:43;1999.90;;;999.90;;
22378;SDS011;11357;49.990;7.370;2024-03-02T14:55:10;1999.90;;;993.70;;
22378;SDS011;11357;49.990;7.370;2024-03-02T14:57:36;1999.90;;;999.90;;
22378;SDS011;11357;49.990;7.370;2024-03-02T15:00:02;1999.90;;;999.90;;
22378;SDS011;11357;49.990;7.370;2024-03-02T15:02:28;1999.90;;;999.90;;
22378;SDS011;11357;49.990;7.370;2024-03-02T15:04:54;1999.90;;;999.90;;
22378;SDS011;11357;49.990;7.370;2024-03-02T15:07:20;1999.90;;;999.90;;
22378;SDS011;11357;49.990;7.370;2024-03-02T15:09:46;1999.90;;;999.90;;
22378;SDS011;11357;49.990;7.370;2024-03-02T15:12:11;1999.90;;;999.90;;
22378;SDS011;11357;49.990;7.370;2024-03-02T15:14:39;1999.90;;;999.90;;
22378;SDS011;11357;49.990;7.370;2024-03-02T15:17:11;1999.90;;;999.90;;
22378;SDS011;11357;49.990;7.370;2024-03-02T15:19:41;1999.90;;;999.90;;
22378;SDS011;11357;49.990;7.370;2024-03-02T15:22:08;1999.90;;;999.90;;
22378;SDS011;11357;49.990;7.370;2024-03-02T15:24:33;1999.90;;;999.90;;
22378;SDS011;11357;49.990;7.370;2024-03-02T15:26:59;1999.90;;;999.90;;
22378;SDS011;11357;49.990;7.370;2024-03-02T15:29:29;1999.90;;;999.90;;
22378;SDS011;11357;49.990;7.370;2024-03-02T15:31:56;1999.90;;;999.90;;
22378;SDS011;11357;49.990;7.370;2024-03-02T15:34:22;1999.90;;;999.90;;
22378;SDS011;11357;49.990;7.370;2024-03-02T15:36:48;1999.90;;;999.90;;
22378;SDS011;11357;49.990;7.370;2024-03-02T15:39:14;1999.90;;;999.90;;
22378;SDS011;11357;49.990;7.370;2024-03-02T15:41:40;1999.90;;;999.90;;
22378;SDS011;11357;49.990;7.370;2024-03-02T15:44:06;1999.90;;;999.90;;
22378;SDS011;11357;49.990;7.370;2024-03-02T15:46:33;1999.90;;;999.90;;
22378;SDS011;11357;49.990;7.370;2024-03-02T15:48:58;1999.90;;;999.90;;
22378;SDS011;11357;49.990;7.370;2024-03-02T15:51:25;1999.90;;;999.90;;
22378;SDS011;11357;49.990;7.370;2024-03-02T15:53:54;1999.90;;;999.90;;
22378;SDS011;11357;49.990;7.370;2024-03-02T15:56:20;1999.90;;;999.90;;
22378;SDS011;11357;49.990;7.370;2024-03-02T15:58:46;1999.90;;;999.90;;
22378;SDS011;11357;49.990;7.370;2024-03-02T16:01:12;1999.90;;;999.90;;
22378;SDS011;11357;49.990;7.370;2024-03-02T16:03:38;1999.90;;;999.90;;
22378;SDS011;11357;49.990;7.370;2024-03-02T16:06:04;1999.90;;;999.90;;
22378;SDS011;11357;49.990;7.370;2024-03-02T16:08:30;1999.90;;;999.90;;
22378;SDS011;11357;49.990;7.370;2024-03-02T16:10:55;1999.90;;;999.90;;
22378;SDS011;11357;49.990;7.370;2024-03-02T16:13:22;1999.90;;;999.90;;
22378;SDS011;11357;49.990;7.370;2024-03-02T16:15:48;1999.90;;;999.90;;
22378;SDS011;11357;49.990;7.370;2024-03-02T16:18:13;1999.90;;;999.90;;
22378;SDS011;11357;49.990;7.370;2024-03-02T16:20:39;1999.90;;;999.90;;
22378;SDS011;11357;49.990;7.370;2024-03-02T16:23:06;1999.90;;;999.90;;
22378;SDS011;11357;49.990;7.370;2024-03-02T16:25:32;1999.90;;;999.90;;
22378;SDS011;11357;49.990;7.370;2024-03-02T16:28:01;1999.90;;;999.90;;
22378;SDS011;11357;49.990;7.370;2024-03-02T16:30:28;1999.90;;;999.90;;
22378;SDS011;11357;49.990;7.370;2024-03-02T16:32:53;1999.90;;;999.90;;
22378;SDS011;11357;49.990;7.370;2024-03-02T16:35:19;1999.90;;;999.90;;
22378;SDS011;11357;49.990;7.370;2024-03-02T16:37:45;1999.90;;;999.90;;
22378;SDS011;11357;49.990;7.370;2024-03-02T16:40:11;1999.90;;;959.17;;
22378;SDS011;11357;49.990;7.370;2024-03-02T16:42:38;1999.90;;;999.90;;
22378;SDS011;11357;49.990;7.370;2024-03-02T16:45:04;1999.90;;;903.50;;
22378;SDS011;11357;49.990;7.370;2024-03-02T16:47:30;1999.90;;;999.90;;
22378;SDS011;11357;49.990;7.370;2024-03-02T16:49:56;1999.90;;;999.90;;
22378;SDS011;11357;49.990;7.370;2024-03-02T16:52:22;1999.90;;;999.90;;
22378;SDS011;11357;49.990;7.370;2024-03-02T16:54:52;1999.90;;;999.90;;
22378;SDS011;11357;49.990;7.370;2024-03-02T16:57:19;1999.90;;;999.90;;
22378;SDS011;11357;49.990;7.370;2024-03-02T16:59:45;1999.90;;;991.33;;
22378;SDS011;11357;49.990;7.370;2024-03-02T17:02:10;1999.90;;;999.90;;
22378;SDS011;11357;49.990;7.370;2024-03-02T17:04:37;1999.90;;;999.90;;
22378;SDS011;11357;49.990;7.370;2024-03-02T17:07:03;1999.90;;;999.90;;
22378;SDS011;11357;49.990;7.370;2024-03-02T17:09:29;1999.90;;;999.90;;
22378;SDS011;11357;49.990;7.370;2024-03-02T17:11:54;1999.90;;;999.90;;
22378;SDS011;11357;49.990;7.370;2024-03-02T17:14:20;1999.90;;;999.90;;
22378;SDS011;11357;49.990;7.370;2024-03-02T17:16:46;1999.90;;;999.90;;
22378;SDS011;11357;49.990;7.370;2024-03-02T17:19:11;1999.90;;;999.90;;
22378;SDS011;11357;49.990;7.370;2024-03-02T17:21:37;1999.90;;;999.90;;
22378;SDS011;11357;49.990;7.370;2024-03-02T17:24:03;1999.90;;;999.90;;
22378;SDS011;11357;49.990;7.370;2024-03-02T17:26:29;1999.90;;;999.90;;
22378;SDS011;11357;49.990;7.370;2024-03-02T17:28:55;1999.90;;;999.90;;
22378;SDS011;11357;49.990;7.370;2024-03-02T17:31:21;1999.90;;;999.90;;
22378;SDS011;11357;49.990;7.370;2024-03-02T17:33:47;1999.90;;;999.90;;
22378;SDS011;11357;49.990;7.370;2024-03-02T17:36:13;1999.90;;;999.90;;
22378;SDS011;11357;49.990;7.370;2024-03-02T17:38:39;1999.90;;;999.90;;
22378;SDS011;11357;49.990;7.370;2024-03-02T17:41:06;1999.90;;;999.90;;
22378;SDS011;11357;49.990;7.370;2024-03-02T17:43:33;1999.90;;;999.90;;
22378;SDS011;11357;49.990;7.370;2024-03-02T17:45:59;1999.90;;;999.90;;
22378;SDS011;11357;49.990;7.370;2024-03-02T17:48:25;1999.90;;;999.90;;
22378;SDS011;11357;49.990;7.370;2024-03-02T17:50:51;1999.90;;;999.90;;
22378;SDS011;11357;49.990;7.370;2024-03-02T17:53:17;1999.90;;;999.90;;
22378;SDS011;11357;49.990;7.370;2024-03-02T17:55:43;1999.90;;;999.90;;
22378;SDS011;11357;49.990;7.370;2024-03-02T17:58:09;1999.90;;;999.90;;
22378;SDS011;11357;49.990;7.370;2024-03-02T18:00:35;1999.90;;;999.90;;
22378;SDS011;11357;49.990;7.370;2024-03-02T18:03:00;1999.90;;;999.90;;
22378;SDS011;11357;49.990;7.370;2024-03-02T18:05:26;1999.90;;;999.90;;
22378;SDS011;11357;49.990;7.370;2024-03-02T18:07:52;1999.90;;;999.90;;
22378;SDS011;11357;49.990;7.370;2024-03-02T18:10:18;1999.90;;;999.90;;
22378;SDS011;11357;49.990;7.370;2024-03-02T18:12:44;1999.90;;;999.90;;
22378;SDS011;11357;49.990;7.370;2024-03-02T18:15:11;1999.90;;;999.90;;
22378;SDS011;11357;49.990;7.370;2024-03-02T18:17:36;1999.90;;;999.90;;
22378;SDS011;11357;49.990;7.370;2024-03-02T18:20:03;1999.90;;;999.90;;
22378;SDS011;11357;49.990;7.370;2024-03-02T18:22:29;1999.90;;;999.90;;
22378;SDS011;11357;49.990;7.370;2024-03-02T18:24:56;1999.90;;;999.90;;
22378;SDS011;11357;49.990;7.370;2024-03-02T18:27:24;1999.90;;;999.90;;
22378;SDS011;11357;49.990;7.370;2024-03-02T18:29:50;1999.90;;;999.90;;
22378;SDS011;11357;49.990;7.370;2024-03-02T18:32:15;1999.90;;;999.90;;
22378;SDS011;11357;49.990;7.370;2024-03-02T18:34:41;1999.90;;;999.90;;
22378;SDS011;11357;49.990;7.370;2024-03-02T18:37:07;1999.90;;;999.90;;
22378;SDS011;11357;49.990;7.370;2024-03-02T18:39:35;1999.90;;;999.90;;
22378;SDS011;11357;49.990;7.370;2024-03-02T18:42:01;1999.90;;;999.90;;
22378;SDS011;11357;49.990;7.370;2024-03-02T18:44:26;1999.90;;;999.90;;
22378;SDS011;11357;49.990;7.370;2024-03-02T18:46:52;1999.90;;;999.90;;
22378;SDS011;11357;49.990;7.370;2024-03-02T18:49:18;1999.90;;;999.90;;
22378;SDS011;11357;49.990;7.370;2024-03-02T18:51:44;1999.90;;;999.90;;
22378;SDS011;11357;49.990;7.370;2024-03-02T18:54:10;1999.90;;;999.90;;
22378;SDS011;11357;49.990;7.370;2024-03-02T18:56:38;1999.90;;;999.90;;
22378;SDS011;11357;49.990;7.370;2024-03-02T18:59:04;1999.90;;;999.90;;
22378;SDS011;11357;49.990;7.370;2024-03-02T19:01:30;1999.90;;;999.90;;
22378;SDS011;11357;49.990;7.370;2024-03-02T19:03:55;1999.90;;;999.90;;
22378;SDS011;11357;49.990;7.370;2024-03-02T19:06:21;1999.90;;;999.90;;
22378;SDS011;11357;49.990;7.370;2024-03-02T19:08:47;1999.90;;;999.90;;
22378;SDS011;11357;49.990;7.370;2024-03-02T19:11:13;1999.90;;;999.90;;
22378;SDS011;11357;49.990;7.370;2024-03-02T19:13:39;1999.90;;;999.90;;
22378;SDS011;11357;49.990;7.370;2024-03-02T19:16:09;1999.90;;;999.90;;
22378;SDS011;11357;49.990;7.370;2024-03-02T19:18:39;1999.90;;;999.90;;
22378;SDS011;11357;49.990;7.370;2024-03-02T19:21:08;1999.90;;;999.90;;
22378;SDS011;11357;49.990;7.370;2024-03-02T19:23:34;1999.90;;;999.90;;
22378;SDS011;11357;49.990;7.370;2024-03-02T19:26:00;1999.90;;;999.90;;
22378;SDS011;11357;49.990;7.370;2024-03-02T19:28:26;1999.90;;;999.90;;
22378;SDS011;11357;49.990;7.370;2024-03-02T21:12:52;1999.90;;;999.90;;
22378;SDS011;11357;49.990;7.370;2024-03-02T21:37:49;1999.90;;;999.90;;
22378;SDS011;11357;49.990;7.370;2024-03-02T21:41:07;1999.90;;;999.90;;
22378;SDS011;11357;49.990;7.370;2024-03-02T21:44:12;1999.90;;;999.90;;
22378;SDS011;11357;49.990;7.370;2024-03-02T21:47:27;1999.90;;;999.90;;
22378;SDS011;11357;49.990;7.370;2024-03-02T23:02:38;1999.90;;;999.90;;
22378;SDS011;11357;49.990;7.370;2024-03-02T23:08:48;1999.90;;;999.90;;
22378;SDS011;11357;49.990;7.370;2024-03-02T23:11:13;1662.17;;;731.13;;
22378;SDS011;11357;49.990;7.370;2024-03-02T23:13:39;1999.90;;;999.90;;
22378;SDS011;11357;49.990;7.370;2024-03-02T23:16:05;1999.90;;;999.90;;
22378;SDS011;11357;49.990;7.370;2024-03-02T23:18:30;1688.73;;;740.97;;
22378;SDS011;11357;49.990;7.370;2024-03-02T23:48:10;895.03;;;244.93;;
